Time;durP1;ratioP1;P1;durP2;ratioP2;P2;SDS_P1;SDS_P2;PMS_P1;PMS_P2;Temp;Humidity;BMP_temperature;BMP_pressure;BME280_temperature;BME280_humidity;BME280_pressure;Samples;Min_cycle;Max_cycle;Signal;HPM_P1;HPM_P2
2022/07/13 00:01:57;;;;;;;;;;;20.10;99.90;;;;;;4983656;28;19929;-88
2022/07/13 00:04:23;;;;;;;;;;;20.20;99.90;;;;;;4979515;28;19990;-86
2022/07/13 00:06:49;;;;;;;;;;;20.30;99.90;;;;;;4997673;28;20011;-87
2022/07/13 00:09:14;;;;;;;;;;;20.40;99.90;;;;;;4978534;28;21093;-86
2022/07/13 00:11:40;;;;;;;;;;;20.40;99.90;;;;;;4998173;28;19929;-86
2022/07/13 00:14:06;;;;;;;;;;;20.40;99.90;;;;;;4995764;28;19980;-85
2022/07/13 00:16:31;;;;;;;;;;;20.30;99.90;;;;;;4996598;28;21034;-85
2022/07/13 00:18:58;;;;;;;;;;;20.30;99.90;;;;;;4993185;28;20283;-85
2022/07/13 00:21:24;;;;;;;;;;;20.30;99.90;;;;;;4982366;28;19936;-87
2022/07/13 00:23:49;;;;;;;;;;;20.30;99.90;;;;;;4978367;28;19928;-86
2022/07/13 00:26:15;;;;;;;;;;;20.30;99.90;;;;;;4981998;28;19929;-86
2022/07/13 00:28:41;;;;;;;;;;;20.30;99.90;;;;;;4894181;28;2257424;-84
2022/07/13 00:31:07;;;;;;;;;;;20.30;99.90;;;;;;4991553;28;20618;-85
2022/07/13 00:33:32;;;;;;;;;;;20.20;99.90;;;;;;4994232;28;20623;-84
2022/07/13 00:35:59;;;;;;;;;;;20.30;99.90;;;;;;4999155;28;19933;-86
2022/07/13 00:38:24;;;;;;;;;;;20.30;99.90;;;;;;4974509;28;19933;-86
2022/07/13 00:40:50;;;;;;;;;;;20.20;99.90;;;;;;4977694;28;19929;-87
2022/07/13 00:43:18;;;;;;;;;;;20.20;99.90;;;;;;4990599;28;20027;-87
2022/07/13 00:45:43;;;;;;;;;;;20.20;99.90;;;;;;4999312;28;19929;-87
2022/07/13 00:48:10;;;;;;;;;;;20.30;99.90;;;;;;4970897;28;19956;-87
2022/07/13 00:50:35;;;;;;;;;;;20.30;99.90;;;;;;5012175;28;19925;-88
2022/07/13 00:53:01;;;;;;;;;;;20.40;99.90;;;;;;5012570;28;20330;-87
2022/07/13 00:55:27;;;;;;;;;;;20.40;99.90;;;;;;5011430;28;19929;-86
2022/07/13 00:57:53;;;;;;;;;;;20.50;99.90;;;;;;4997043;28;19928;-87
2022/07/13 01:00:19;;;;;;;;;;;20.50;99.90;;;;;;4996822;28;20033;-87
2022/07/13 01:02:46;;;;;;;;;;;20.40;99.90;;;;;;4994750;28;20007;-84
2022/07/13 01:05:12;;;;;;;;;;;20.50;99.90;;;;;;4995401;28;19963;-85
2022/07/13 01:07:38;;;;;;;;;;;20.50;99.90;;;;;;4994293;28;19929;-84
2022/07/13 01:10:07;;;;;;;;;;;20.40;99.90;;;;;;4999127;28;20649;-85
2022/07/13 01:12:34;;;;;;;;;;;20.40;99.90;;;;;;4993911;28;20326;-85
2022/07/13 01:15:00;;;;;;;;;;;20.40;99.90;;;;;;4983240;28;19929;-84
2022/07/13 01:17:26;;;;;;;;;;;20.40;99.90;;;;;;5007757;28;19929;-86
2022/07/13 01:19:52;;;;;;;;;;;20.40;99.90;;;;;;4991724;28;19928;-86
2022/07/13 01:22:22;;;;;;;;;;;20.40;99.90;;;;;;4963356;28;19943;-85
2022/07/13 01:24:47;;;;;;;;;;;20.40;99.90;;;;;;4980076;28;19944;-85
2022/07/13 01:27:13;;;;;;;;;;;20.40;99.90;;;;;;5003806;28;21028;-86
2022/07/13 01:29:40;;;;;;;;;;;20.40;99.90;;;;;;4982637;28;19929;-84
2022/07/13 01:32:06;;;;;;;;;;;20.40;99.90;;;;;;4980995;28;19933;-85
2022/07/13 01:34:32;;;;;;;;;;;20.40;99.90;;;;;;5002963;28;20537;-84
2022/07/13 01:36:58;;;;;;;;;;;20.40;99.90;;;;;;4999123;28;20010;-84
2022/07/13 01:39:24;;;;;;;;;;;20.30;99.90;;;;;;4996182;28;19944;-83
2022/07/13 01:41:50;;;;;;;;;;;20.30;99.90;;;;;;4999236;28;20478;-83
2022/07/13 01:44:16;;;;;;;;;;;20.30;99.90;;;;;;4996068;28;20019;-83
2022/07/13 01:46:42;;;;;;;;;;;20.40;99.90;;;;;;4976310;28;20390;-82
2022/07/13 01:49:07;;;;;;;;;;;20.30;99.90;;;;;;4982274;28;19983;-83
2022/07/13 01:51:33;;;;;;;;;;;20.40;99.90;;;;;;4998728;28;20810;-84
2022/07/13 01:53:59;;;;;;;;;;;20.40;99.90;;;;;;5002829;28;19968;-84
2022/07/13 01:56:25;;;;;;;;;;;20.40;99.90;;;;;;5016877;28;19975;-83
2022/07/13 01:58:51;;;;;;;;;;;20.40;99.90;;;;;;4996441;28;19992;-82
2022/07/13 02:01:17;;;;;;;;;;;20.40;99.90;;;;;;5017428;28;20815;-83
2022/07/13 02:03:42;;;;;;;;;;;20.50;99.90;;;;;;5000230;28;20591;-83
2022/07/13 02:06:08;;;;;;;;;;;20.40;99.90;;;;;;5002251;28;20386;-83
2022/07/13 02:08:34;;;;;;;;;;;20.40;99.90;;;;;;5003160;28;19929;-83
2022/07/13 02:11:00;;;;;;;;;;;20.40;99.90;;;;;;5005333;28;20454;-82
2022/07/13 02:13:25;;;;;;;;;;;20.40;99.90;;;;;;4995370;28;19941;-87
2022/07/13 02:15:51;;;;;;;;;;;20.40;99.90;;;;;;4993955;28;19929;-83
2022/07/13 02:18:17;;;;;;;;;;;20.50;99.90;;;;;;5001141;28;19989;-83
2022/07/13 02:20:43;;;;;;;;;;;20.50;99.90;;;;;;4998120;28;19933;-82
2022/07/13 02:23:09;;;;;;;;;;;20.40;99.90;;;;;;4996187;28;19995;-83
2022/07/13 02:25:35;;;;;;;;;;;20.40;99.90;;;;;;4998280;28;19961;-84
2022/07/13 02:28:00;;;;;;;;;;;20.40;99.90;;;;;;5000613;28;19968;-87
2022/07/13 02:30:26;;;;;;;;;;;20.40;99.90;;;;;;4998432;28;20020;-84
2022/07/13 02:32:52;;;;;;;;;;;20.40;99.90;;;;;;5009581;28;20334;-84
2022/07/13 02:35:18;;;;;;;;;;;20.40;99.90;;;;;;5016286;28;20146;-84
2022/07/13 02:37:43;;;;;;;;;;;20.40;99.90;;;;;;5013582;28;19929;-83
2022/07/13 02:40:10;;;;;;;;;;;20.40;99.90;;;;;;5012500;28;19929;-84
2022/07/13 02:42:36;;;;;;;;;;;20.50;99.90;;;;;;5011895;28;19929;-85
2022/07/13 02:45:02;;;;;;;;;;;20.50;99.90;;;;;;5008541;28;19979;-84
2022/07/13 02:47:28;;;;;;;;;;;20.40;99.90;;;;;;5012286;28;20378;-86
2022/07/13 02:49:54;;;;;;;;;;;20.40;99.90;;;;;;5009347;28;19939;-84
2022/07/13 02:52:19;;;;;;;;;;;20.40;99.90;;;;;;5000537;28;20051;-83
2022/07/13 02:54:45;;;;;;;;;;;20.40;99.90;;;;;;4976061;28;19935;-85
2022/07/13 02:57:11;;;;;;;;;;;20.50;99.90;;;;;;5000305;28;20153;-84
2022/07/13 02:59:37;;;;;;;;;;;20.50;99.90;;;;;;4994783;28;19933;-87
2022/07/13 03:02:03;;;;;;;;;;;20.40;99.90;;;;;;4999239;28;19935;-86
2022/07/13 03:04:29;;;;;;;;;;;20.50;99.90;;;;;;4978708;28;19933;-84
2022/07/13 03:06:55;;;;;;;;;;;20.50;99.90;;;;;;4997420;28;19979;-82
2022/07/13 03:09:21;;;;;;;;;;;20.40;99.90;;;;;;4999915;28;19933;-85
2022/07/13 03:11:46;;;;;;;;;;;20.50;99.90;;;;;;4998153;28;20583;-85
2022/07/13 03:14:12;;;;;;;;;;;20.40;99.90;;;;;;4980969;28;19929;-85
2022/07/13 03:16:38;;;;;;;;;;;20.40;99.90;;;;;;4980354;28;20411;-86
2022/07/13 03:19:03;;;;;;;;;;;20.40;99.90;;;;;;4967685;28;20003;-83
2022/07/13 03:21:29;;;;;;;;;;;20.40;99.90;;;;;;4996702;28;20689;-87
2022/07/13 03:23:55;;;;;;;;;;;20.30;99.90;;;;;;4986218;28;19933;-84
2022/07/13 03:26:21;;;;;;;;;;;20.40;99.90;;;;;;5012506;28;19936;-84
2022/07/13 03:28:47;;;;;;;;;;;20.30;99.90;;;;;;4981113;28;19929;-84
2022/07/13 03:31:12;;;;;;;;;;;20.30;99.90;;;;;;5013734;28;19935;-84
2022/07/13 03:33:38;;;;;;;;;;;20.30;99.90;;;;;;5014084;28;20067;-85
2022/07/13 03:36:04;;;;;;;;;;;20.30;99.90;;;;;;5014568;28;20178;-85
2022/07/13 03:38:31;;;;;;;;;;;20.30;99.90;;;;;;5007795;28;20209;-85
2022/07/13 03:40:56;;;;;;;;;;;20.30;99.90;;;;;;4988646;28;20032;-84
2022/07/13 03:43:22;;;;;;;;;;;20.30;99.90;;;;;;4989223;28;20742;-84
2022/07/13 03:45:48;;;;;;;;;;;20.30;99.90;;;;;;5004378;28;20367;-85
2022/07/13 03:48:16;;;;;;;;;;;20.30;99.90;;;;;;5005674;28;19926;-85
2022/07/13 03:50:42;;;;;;;;;;;20.30;99.90;;;;;;5014815;28;19929;-86
2022/07/13 03:53:08;;;;;;;;;;;20.40;99.90;;;;;;4993506;28;20842;-85
2022/07/13 03:55:34;;;;;;;;;;;20.30;99.90;;;;;;5017530;28;19935;-85
2022/07/13 03:57:59;;;;;;;;;;;20.30;99.90;;;;;;4991355;28;19933;-84
2022/07/13 04:00:26;;;;;;;;;;;20.40;99.90;;;;;;5011834;28;20341;-84
2022/07/13 04:02:51;;;;;;;;;;;20.40;99.90;;;;;;5011307;28;19936;-83
2022/07/13 04:05:17;;;;;;;;;;;20.40;99.90;;;;;;5009942;28;19929;-85
2022/07/13 04:07:43;;;;;;;;;;;20.40;99.90;;;;;;5013442;28;19948;-83
2022/07/13 04:10:08;;;;;;;;;;;20.40;99.90;;;;;;5013306;28;20408;-84
2022/07/13 04:12:34;;;;;;;;;;;20.50;99.90;;;;;;5017507;28;19929;-83
2022/07/13 04:15:00;;;;;;;;;;;20.50;99.90;;;;;;5012325;28;20048;-83
2022/07/13 04:17:26;;;;;;;;;;;20.50;99.90;;;;;;5012436;28;19929;-84
2022/07/13 04:19:51;;;;;;;;;;;20.50;99.90;;;;;;5010695;28;20439;-84
2022/07/13 04:22:17;;;;;;;;;;;20.50;99.90;;;;;;5014120;28;19983;-82
2022/07/13 04:24:42;;;;;;;;;;;20.50;99.90;;;;;;5015247;28;20349;-83
2022/07/13 04:27:08;;;;;;;;;;;20.50;99.90;;;;;;5018244;28;19932;-83
2022/07/13 04:29:34;;;;;;;;;;;20.60;99.90;;;;;;5011028;28;20486;-86
2022/07/13 04:32:00;;;;;;;;;;;20.50;99.90;;;;;;5015687;28;19955;-84
2022/07/13 04:34:25;;;;;;;;;;;20.50;99.90;;;;;;4998220;28;19936;-83
2022/07/13 04:36:52;;;;;;;;;;;20.50;99.90;;;;;;4991950;28;20044;-87
2022/07/13 04:39:17;;;;;;;;;;;20.60;99.90;;;;;;5011101;28;20405;-84
2022/07/13 04:41:43;;;;;;;;;;;20.60;99.90;;;;;;5001286;28;19928;-84
2022/07/13 04:44:09;;;;;;;;;;;20.60;99.90;;;;;;5011874;28;19947;-85
2022/07/13 04:46:34;;;;;;;;;;;20.60;99.90;;;;;;4994171;28;19964;-84
2022/07/13 04:49:00;;;;;;;;;;;20.60;99.90;;;;;;4979370;28;19964;-83
2022/07/13 04:51:26;;;;;;;;;;;20.60;99.90;;;;;;4997096;28;20297;-85
2022/07/13 04:53:51;;;;;;;;;;;20.60;99.90;;;;;;5000773;28;20302;-84
2022/07/13 04:56:17;;;;;;;;;;;20.70;99.90;;;;;;5013024;28;20638;-84
2022/07/13 04:58:43;;;;;;;;;;;20.70;99.90;;;;;;4995802;28;19940;-88
2022/07/13 05:01:08;;;;;;;;;;;20.80;99.90;;;;;;5013730;28;20548;-85
2022/07/13 05:03:34;;;;;;;;;;;20.90;99.90;;;;;;5016146;28;20026;-84
2022/07/13 05:06:00;;;;;;;;;;;20.90;99.90;;;;;;5009873;28;20158;-84
2022/07/13 05:08:26;;;;;;;;;;;20.90;99.90;;;;;;4996835;28;19929;-82
2022/07/13 05:10:53;;;;;;;;;;;21.00;99.90;;;;;;5013307;28;20027;-86
2022/07/13 05:13:18;;;;;;;;;;;21.00;99.90;;;;;;5000396;28;20028;-84
2022/07/13 05:15:45;;;;;;;;;;;21.00;99.90;;;;;;5014849;28;19929;-84
2022/07/13 05:18:10;;;;;;;;;;;21.00;99.90;;;;;;5013129;28;19928;-84
2022/07/13 05:20:36;;;;;;;;;;;21.00;99.90;;;;;;5015521;28;20007;-81
2022/07/13 05:23:02;;;;;;;;;;;21.00;99.90;;;;;;5006378;28;19955;-84
2022/07/13 05:25:28;;;;;;;;;;;21.10;99.90;;;;;;5003538;28;19929;-83
2022/07/13 05:27:54;;;;;;;;;;;21.00;99.90;;;;;;5000540;28;20645;-85
2022/07/13 05:30:19;;;;;;;;;;;21.00;99.90;;;;;;5004541;28;19929;-83
2022/07/13 05:32:45;;;;;;;;;;;21.10;99.90;;;;;;5000586;28;20935;-83
2022/07/13 05:35:11;;;;;;;;;;;21.10;99.90;;;;;;5003206;28;19933;-82
2022/07/13 05:37:37;;;;;;;;;;;21.20;99.90;;;;;;5001247;28;19952;-83
2022/07/13 05:40:03;;;;;;;;;;;21.30;99.90;;;;;;5012266;28;20454;-81
2022/07/13 05:42:28;;;;;;;;;;;21.20;99.90;;;;;;4997244;28;22825;-84
2022/07/13 05:44:54;;;;;;;;;;;21.30;99.90;;;;;;5011501;28;19929;-85
2022/07/13 05:47:20;;;;;;;;;;;21.40;99.90;;;;;;4997042;28;19929;-84
2022/07/13 05:49:46;;;;;;;;;;;21.40;99.90;;;;;;5019699;28;19935;-83
2022/07/13 05:52:11;;;;;;;;;;;21.50;99.90;;;;;;5023279;28;20013;-85
2022/07/13 05:54:37;;;;;;;;;;;21.60;99.90;;;;;;5021898;28;20392;-84
2022/07/13 05:57:03;;;;;;;;;;;21.60;99.90;;;;;;4982536;28;20299;-85
2022/07/13 05:59:29;;;;;;;;;;;21.80;99.90;;;;;;5020991;28;19932;-82
2022/07/13 06:01:54;;;;;;;;;;;22.00;99.90;;;;;;5022433;28;20006;-83
2022/07/13 06:04:20;;;;;;;;;;;22.20;99.90;;;;;;5018789;28;19929;-82
2022/07/13 06:06:47;;;;;;;;;;;22.20;99.90;;;;;;5014160;28;19929;-83
2022/07/13 06:09:13;;;;;;;;;;;22.40;99.90;;;;;;5020204;28;19984;-83
2022/07/13 06:11:39;;;;;;;;;;;22.60;99.90;;;;;;5014857;28;20118;-83
2022/07/13 06:14:05;;;;;;;;;;;22.80;99.90;;;;;;5018328;28;20496;-83
2022/07/13 06:16:31;;;;;;;;;;;22.80;99.90;;;;;;4993916;28;20465;-84
2022/07/13 06:18:56;;;;;;;;;;;23.00;99.90;;;;;;5017314;28;20070;-82
2022/07/13 06:21:22;;;;;;;;;;;22.90;99.90;;;;;;5010264;28;20552;-83
2022/07/13 06:23:48;;;;;;;;;;;23.00;99.90;;;;;;4994419;28;19929;-83
2022/07/13 06:26:14;;;;;;;;;;;23.10;99.90;;;;;;4988063;28;20365;-86
2022/07/13 06:28:39;;;;;;;;;;;23.40;99.90;;;;;;5013142;28;19933;-86
2022/07/13 06:31:05;;;;;;;;;;;23.60;99.90;;;;;;4999404;28;19933;-86
2022/07/13 06:33:31;;;;;;;;;;;23.70;99.90;;;;;;5017376;28;19992;-85
2022/07/13 06:35:57;;;;;;;;;;;24.00;99.90;;;;;;5014209;28;19925;-87
2022/07/13 06:38:22;;;;;;;;;;;23.90;99.90;;;;;;5017376;28;19929;-85
2022/07/13 06:40:49;;;;;;;;;;;24.10;99.90;;;;;;4979882;28;19936;-86
2022/07/13 06:43:15;;;;;;;;;;;24.20;99.90;;;;;;5013781;28;20035;-83
2022/07/13 06:45:41;;;;;;;;;;;24.30;99.90;;;;;;5010327;28;20015;-83
2022/07/13 06:48:07;;;;;;;;;;;24.40;99.90;;;;;;4997931;28;19973;-86
2022/07/13 06:50:32;;;;;;;;;;;24.60;99.90;;;;;;5010301;28;20047;-84
2022/07/13 06:52:58;;;;;;;;;;;24.60;99.90;;;;;;4999513;28;19940;-86
2022/07/13 06:55:24;;;;;;;;;;;24.50;99.90;;;;;;5017386;28;20428;-85
2022/07/13 06:57:50;;;;;;;;;;;24.40;99.90;;;;;;5014297;28;20386;-87
2022/07/13 07:00:16;;;;;;;;;;;24.30;99.90;;;;;;4990805;28;19937;-87
2022/07/13 07:02:43;;;;;;;;;;;24.20;99.90;;;;;;5012667;28;19991;-85
2022/07/13 07:05:11;;;;;;;;;;;24.30;99.90;;;;;;5014108;28;19964;-85
2022/07/13 07:07:43;;;;;;;;;;;24.30;99.90;;;;;;5016065;28;19929;-86
2022/07/13 07:10:10;;;;;;;;;;;24.40;99.90;;;;;;5020370;28;21203;-86
2022/07/13 07:12:36;;;;;;;;;;;24.30;99.90;;;;;;4998467;28;20601;-87
2022/07/13 07:15:02;;;;;;;;;;;24.40;99.90;;;;;;5010848;28;19929;-86
2022/07/13 07:17:28;;;;;;;;;;;24.30;99.90;;;;;;5015071;28;19976;-87
2022/07/13 07:20:01;;;;;;;;;;;24.30;99.90;;;;;;4997002;28;20355;-85
2022/07/13 07:22:27;;;;;;;;;;;24.30;99.90;;;;;;5014118;28;20037;-85
2022/07/13 07:24:53;;;;;;;;;;;24.40;99.90;;;;;;4990607;28;20422;-86
2022/07/13 07:27:19;;;;;;;;;;;24.50;99.90;;;;;;5016281;28;19940;-86
2022/07/13 07:29:44;;;;;;;;;;;24.50;99.90;;;;;;4996366;28;20393;-86
2022/07/13 07:32:10;;;;;;;;;;;24.50;99.90;;;;;;4992858;28;19928;-87
2022/07/13 07:34:36;;;;;;;;;;;24.50;99.90;;;;;;4993648;28;19959;-88
2022/07/13 07:37:03;;;;;;;;;;;24.50;99.90;;;;;;4994521;28;19975;-87
2022/07/13 07:39:29;;;;;;;;;;;24.40;99.90;;;;;;5011510;28;19987;-85
2022/07/13 07:41:55;;;;;;;;;;;24.40;99.90;;;;;;5011618;28;19929;-88
2022/07/13 07:44:21;;;;;;;;;;;25.10;99.90;;;;;;4993674;28;19967;-87
2022/07/13 07:46:47;;;;;;;;;;;25.70;99.90;;;;;;4990853;28;19944;-89
2022/07/13 07:49:12;;;;;;;;;;;26.00;99.90;;;;;;4997247;28;19929;-86
2022/07/13 07:51:38;;;;;;;;;;;26.20;99.90;;;;;;5014450;28;19951;-88
2022/07/13 07:54:05;;;;;;;;;;;26.10;99.90;;;;;;4978638;28;19928;-88
2022/07/13 07:56:31;;;;;;;;;;;26.10;99.90;;;;;;5015770;28;19981;-86
2022/07/13 07:58:57;;;;;;;;;;;26.60;99.90;;;;;;5009416;28;20893;-88
2022/07/13 08:01:23;;;;;;;;;;;26.30;99.90;;;;;;4995566;28;20491;-88
2022/07/13 08:03:49;;;;;;;;;;;26.30;99.90;;;;;;5008704;28;19933;-92
2022/07/13 08:06:16;;;;;;;;;;;26.40;99.90;;;;;;4988339;28;19928;-88
2022/07/13 08:08:41;;;;;;;;;;;26.30;99.90;;;;;;4990632;28;19933;-87
2022/07/13 08:11:09;;;;;;;;;;;26.20;99.90;;;;;;5008067;28;20092;-85
2022/07/13 08:13:35;;;;;;;;;;;26.50;99.90;;;;;;5016029;28;20303;-89
2022/07/13 08:16:02;;;;;;;;;;;26.70;99.90;;;;;;4995861;28;20741;-90
2022/07/13 08:18:28;;;;;;;;;;;27.00;99.90;;;;;;5013383;28;20023;-89
2022/07/13 08:20:54;;;;;;;;;;;27.10;99.90;;;;;;5013869;28;20015;-90
2022/07/13 08:26:04;;;;;;;;;;;26.90;99.90;;;;;;5016793;28;19929;-88
2022/07/13 08:28:29;;;;;;;;;;;27.20;99.90;;;;;;4978996;28;20597;-85
2022/07/13 08:30:55;;;;;;;;;;;27.50;99.90;;;;;;5017717;28;20790;-87
2022/07/13 08:38:34;;;;;;;;;;;27.80;99.90;;;;;;5015387;28;19929;-87
2022/07/13 08:38:50;;;;;;;;;;;27.40;99.90;;;;;;5011178;28;19940;-88
2022/07/13 08:41:16;;;;;;;;;;;27.60;99.90;;;;;;4995382;28;19932;-85
2022/07/13 08:43:42;;;;;;;;;;;27.50;99.90;;;;;;5018630;28;19995;-86
2022/07/13 08:46:08;;;;;;;;;;;28.10;99.90;;;;;;5013288;28;19931;-87
2022/07/13 08:48:37;;;;;;;;;;;28.30;99.90;;;;;;4982369;28;19929;-89
2022/07/13 08:51:03;;;;;;;;;;;28.40;99.90;;;;;;4995208;28;19929;-87
2022/07/13 08:53:29;;;;;;;;;;;28.40;99.90;;;;;;5011837;28;19937;-86
2022/07/13 08:55:56;;;;;;;;;;;28.60;99.90;;;;;;4993456;28;19929;-85
2022/07/13 08:58:22;;;;;;;;;;;28.60;99.90;;;;;;5001323;28;19929;-87
2022/07/13 09:00:48;;;;;;;;;;;28.90;99.90;;;;;;4988897;28;20348;-86
2022/07/13 09:03:14;;;;;;;;;;;29.00;99.90;;;;;;5010599;28;19954;-85
2022/07/13 09:05:40;;;;;;;;;;;29.00;99.90;;;;;;5009016;28;20106;-87
2022/07/13 09:08:06;;;;;;;;;;;29.30;99.90;;;;;;5010212;28;19966;-86
2022/07/13 09:10:50;;;;;;;;;;;29.20;99.90;;;;;;4950154;28;20019;-85
2022/07/13 09:13:31;;;;;;;;;;;29.30;99.90;;;;;;4981270;28;20585;-88
2022/07/13 09:16:17;;;;;;;;;;;29.20;99.90;;;;;;5010756;28;20044;-87
2022/07/13 09:18:44;;;;;;;;;;;29.20;99.90;;;;;;5003984;28;19933;-86
2022/07/13 09:21:10;;;;;;;;;;;29.30;99.90;;;;;;5006453;28;20394;-89
2022/07/13 09:23:35;;;;;;;;;;;29.70;99.90;;;;;;4995327;28;20024;-87
2022/07/13 09:26:08;;;;;;;;;;;29.70;99.90;;;;;;5009956;28;19979;-86
2022/07/13 09:28:53;;;;;;;;;;;29.80;99.90;;;;;;5012129;28;20265;-86
2022/07/13 09:31:19;;;;;;;;;;;29.80;99.90;;;;;;5006127;28;19939;-86
2022/07/13 09:33:45;;;;;;;;;;;29.80;99.90;;;;;;5016439;28;20512;-88
2022/07/13 09:36:20;;;;;;;;;;;29.80;99.90;;;;;;5008718;28;20398;-86
2022/07/13 09:38:47;;;;;;;;;;;30.00;99.90;;;;;;5006874;28;19933;-86
2022/07/13 09:41:16;;;;;;;;;;;30.20;99.90;;;;;;4992130;28;19994;-85
2022/07/13 09:46:50;;;;;;;;;;;30.10;99.90;;;;;;5008900;28;20746;-86
2022/07/13 09:49:17;;;;;;;;;;;30.00;99.90;;;;;;5011143;28;20039;-87
2022/07/13 09:51:44;;;;;;;;;;;30.20;99.90;;;;;;5013773;28;19944;-89
2022/07/13 09:54:11;;;;;;;;;;;30.30;99.90;;;;;;5009948;28;19936;-86
2022/07/13 09:56:39;;;;;;;;;;;29.80;99.90;;;;;;5005594;28;19983;-85
2022/07/13 09:59:05;;;;;;;;;;;30.20;99.90;;;;;;5005778;28;19948;-87
2022/07/13 10:01:32;;;;;;;;;;;30.40;99.90;;;;;;4978850;28;19929;-86
2022/07/13 10:03:58;;;;;;;;;;;30.10;99.90;;;;;;5009038;28;20003;-87
2022/07/13 10:06:23;;;;;;;;;;;30.20;99.90;;;;;;5011404;28;19929;-86
2022/07/13 10:08:53;;;;;;;;;;;30.10;99.90;;;;;;5007027;28;20011;-86
2022/07/13 10:11:19;;;;;;;;;;;30.00;99.90;;;;;;5000469;28;19929;-85
2022/07/13 10:13:45;;;;;;;;;;;29.90;99.90;;;;;;5011394;28;19929;-86
2022/07/13 10:16:11;;;;;;;;;;;29.80;99.90;;;;;;5012653;28;19929;-86
2022/07/13 10:18:59;;;;;;;;;;;29.90;99.90;;;;;;5012802;28;19933;-90
2022/07/13 10:21:44;;;;;;;;;;;30.10;99.90;;;;;;4993059;28;19936;-87
2022/07/13 10:24:13;;;;;;;;;;;30.20;99.90;;;;;;5015142;28;19933;-84
2022/07/13 10:26:39;;;;;;;;;;;30.40;99.90;;;;;;5013019;28;19970;-87
2022/07/13 10:32:03;;;;;;;;;;;30.80;99.90;;;;;;4952177;28;19929;-87
2022/07/13 10:34:52;;;;;;;;;;;30.50;99.90;;;;;;5002391;28;20043;-86
2022/07/13 10:37:18;;;;;;;;;;;30.80;99.90;;;;;;4992381;28;19944;-86
2022/07/13 10:40:11;;;;;;;;;;;30.60;99.90;;;;;;5005781;28;20267;-86
2022/07/13 10:42:59;;;;;;;;;;;30.40;99.90;;;;;;4980865;28;19983;-85
2022/07/13 10:45:32;;;;;;;;;;;30.30;99.90;;;;;;5003571;28;20369;-87
2022/07/13 10:48:02;;;;;;;;;;;30.90;99.90;;;;;;4998932;28;20080;-87
2022/07/13 10:50:34;;;;;;;;;;;30.40;99.90;;;;;;5001622;28;19924;-85
2022/07/13 10:53:00;;;;;;;;;;;30.30;99.90;;;;;;4985889;28;19969;-88
2022/07/13 10:55:30;;;;;;;;;;;29.70;99.90;;;;;;4984708;28;19929;-88
2022/07/13 10:57:56;;;;;;;;;;;29.20;99.90;;;;;;5015684;28;19962;-86
2022/07/13 11:00:36;;;;;;;;;;;29.50;99.90;;;;;;5001866;28;20097;-86
2022/07/13 11:03:03;;;;;;;;;;;29.20;99.90;;;;;;4987351;28;20378;-87
2022/07/13 11:05:32;;;;;;;;;;;28.70;99.90;;;;;;5003888;28;20050;-89
2022/07/13 11:08:10;;;;;;;;;;;28.40;99.90;;;;;;4959269;28;20684;-90
2022/07/13 11:10:36;;;;;;;;;;;28.10;99.90;;;;;;5005150;28;20812;-86
2022/07/13 11:13:09;;;;;;;;;;;28.40;99.90;;;;;;4985363;28;19940;-86
2022/07/13 11:15:54;;;;;;;;;;;29.10;99.90;;;;;;5004244;28;19936;-89
2022/07/13 11:18:22;;;;;;;;;;;29.70;99.90;;;;;;4998124;28;19956;-90
2022/07/13 11:20:58;;;;;;;;;;;29.80;99.90;;;;;;5023096;28;20446;-87
2022/07/13 11:26:44;;;;;;;;;;;29.30;99.90;;;;;;5000898;28;19933;-85
2022/07/13 11:29:29;;;;;;;;;;;29.80;99.90;;;;;;4943503;28;19929;-89
2022/07/13 11:32:07;;;;;;;;;;;30.10;99.90;;;;;;4982873;28;19955;-85
2022/07/13 11:34:34;;;;;;;;;;;30.20;99.90;;;;;;4996591;28;20144;-89
2022/07/13 11:37:03;;;;;;;;;;;30.30;99.90;;;;;;5012793;28;20680;-90
2022/07/13 11:39:35;;;;;;;;;;;30.60;99.90;;;;;;5013029;28;19933;-87
2022/07/13 11:42:02;;;;;;;;;;;30.90;99.90;;;;;;4975943;28;19937;-86
2022/07/13 11:44:29;;;;;;;;;;;31.20;99.90;;;;;;5009894;28;19932;-87
2022/07/13 11:46:56;;;;;;;;;;;31.40;99.90;;;;;;4994908;28;19940;-88
2022/07/13 11:49:24;;;;;;;;;;;31.50;99.90;;;;;;4993546;28;20175;-88
2022/07/13 11:51:50;;;;;;;;;;;31.90;99.90;;;;;;4997479;28;20581;-88
2022/07/13 11:54:17;;;;;;;;;;;32.10;99.90;;;;;;4997573;28;19982;-85
2022/07/13 11:56:47;;;;;;;;;;;31.90;99.90;;;;;;5008610;28;19940;-88
2022/07/13 11:59:33;;;;;;;;;;;31.50;98.40;;;;;;5008083;28;20469;-88
2022/07/13 12:02:08;;;;;;;;;;;31.30;98.40;;;;;;5003125;28;20222;-89
2022/07/13 12:04:34;;;;;;;;;;;31.00;98.00;;;;;;4990185;28;20383;-86
2022/07/13 12:07:10;;;;;;;;;;;31.00;97.00;;;;;;5009654;28;19929;-86
2022/07/13 12:09:36;;;;;;;;;;;31.40;97.70;;;;;;5008720;28;20872;-87
2022/07/13 12:12:02;;;;;;;;;;;31.80;98.80;;;;;;4997307;28;20004;-89
2022/07/13 12:14:28;;;;;;;;;;;32.00;97.40;;;;;;4967394;28;20051;-87
2022/07/13 12:16:54;;;;;;;;;;;32.00;98.20;;;;;;5009524;28;19925;-88
2022/07/13 12:19:20;;;;;;;;;;;31.70;96.50;;;;;;4982778;28;20820;-85
2022/07/13 12:22:10;;;;;;;;;;;31.20;95.80;;;;;;5001880;28;20020;-86
2022/07/13 12:24:42;;;;;;;;;;;31.30;94.70;;;;;;5000047;28;19950;-83
2022/07/13 12:27:08;;;;;;;;;;;31.50;95.90;;;;;;5007384;28;19968;-87
2022/07/13 12:29:34;;;;;;;;;;;31.50;94.60;;;;;;5004294;28;20028;-91
2022/07/13 12:32:00;;;;;;;;;;;31.40;95.10;;;;;;5009031;28;20412;-87
2022/07/13 12:34:26;;;;;;;;;;;31.70;95.70;;;;;;4999084;28;20754;-86
2022/07/13 12:36:52;;;;;;;;;;;31.60;94.60;;;;;;5005355;28;20334;-86
2022/07/13 12:39:35;;;;;;;;;;;31.90;96.20;;;;;;5012095;28;19999;-88
2022/07/13 12:42:01;;;;;;;;;;;32.00;97.10;;;;;;5005208;28;19929;-88
2022/07/13 12:44:31;;;;;;;;;;;32.30;96.60;;;;;;4988997;28;20019;-90
2022/07/13 12:46:59;;;;;;;;;;;32.30;97.70;;;;;;4989254;28;19929;-88
2022/07/13 12:49:37;;;;;;;;;;;31.20;96.40;;;;;;5014539;28;19929;-87
2022/07/13 12:52:07;;;;;;;;;;;30.80;93.60;;;;;;5006058;28;20330;-87
2022/07/13 12:54:51;;;;;;;;;;;30.70;96.00;;;;;;5004586;28;20530;-90
2022/07/13 12:57:24;;;;;;;;;;;30.30;97.40;;;;;;5012087;28;19929;-86
2022/07/13 13:00:16;;;;;;;;;;;30.10;95.80;;;;;;5009782;28;20032;-86
2022/07/13 13:02:42;;;;;;;;;;;29.80;94.80;;;;;;4991854;28;21857;-84
2022/07/13 13:05:11;;;;;;;;;;;30.20;97.10;;;;;;5010608;28;19929;-88
2022/07/13 13:07:38;;;;;;;;;;;29.70;96.70;;;;;;4992792;28;20469;-87
2022/07/13 13:10:04;;;;;;;;;;;30.00;98.40;;;;;;4976979;28;20095;-83
2022/07/13 13:12:30;;;;;;;;;;;30.70;98.70;;;;;;5012812;28;20421;-86
2022/07/13 13:14:56;;;;;;;;;;;30.90;97.40;;;;;;5006728;28;19978;-90
2022/07/13 13:17:22;;;;;;;;;;;30.90;95.90;;;;;;5011009;28;19983;-88
2022/07/13 13:19:47;;;;;;;;;;;30.40;96.60;;;;;;4990430;28;19932;-86
2022/07/13 13:22:13;;;;;;;;;;;30.30;95.90;;;;;;5015588;28;19929;-89
2022/07/13 13:24:39;;;;;;;;;;;30.80;96.40;;;;;;5012113;28;19940;-86
2022/07/13 13:27:05;;;;;;;;;;;30.40;96.80;;;;;;5011261;28;19929;-89
2022/07/13 13:32:16;;;;;;;;;;;30.90;97.80;;;;;;5009381;28;19932;-89
2022/07/13 13:34:42;;;;;;;;;;;31.00;96.60;;;;;;4992237;28;20829;-88
2022/07/13 13:37:07;;;;;;;;;;;30.60;96.40;;;;;;5008749;28;20020;-88
2022/07/13 13:39:33;;;;;;;;;;;29.60;97.40;;;;;;4993555;28;19947;-87
2022/07/13 13:41:59;;;;;;;;;;;29.30;98.20;;;;;;4993079;28;20052;-88
2022/07/13 13:44:24;;;;;;;;;;;28.60;98.70;;;;;;4980018;28;19971;-85
2022/07/13 13:46:50;;;;;;;;;;;28.80;99.70;;;;;;5006393;28;20028;-89
2022/07/13 13:49:16;;;;;;;;;;;29.10;99.00;;;;;;5003190;28;20055;-89
2022/07/13 13:51:41;;;;;;;;;;;29.50;98.90;;;;;;5015297;28;20374;-88
2022/07/13 13:54:07;;;;;;;;;;;28.70;99.00;;;;;;4990769;28;19936;-88
2022/07/13 13:56:33;;;;;;;;;;;28.30;99.90;;;;;;5010187;28;19925;-89
2022/07/13 13:58:58;;;;;;;;;;;28.60;99.90;;;;;;4992936;28;20374;-88
2022/07/13 14:01:24;;;;;;;;;;;29.00;99.90;;;;;;5010330;28;20434;-87
2022/07/13 14:03:50;;;;;;;;;;;29.40;99.90;;;;;;5008615;28;19929;-85
2022/07/13 14:06:15;;;;;;;;;;;29.20;99.90;;;;;;5007898;28;19928;-86
2022/07/13 14:08:43;;;;;;;;;;;29.10;99.90;;;;;;5008466;28;20111;-84
2022/07/13 14:11:12;;;;;;;;;;;28.80;99.90;;;;;;5009965;28;19998;-87
2022/07/13 14:13:38;;;;;;;;;;;28.60;99.90;;;;;;5011292;28;19929;-87
2022/07/13 14:16:04;;;;;;;;;;;28.30;99.90;;;;;;5009844;28;19933;-86
2022/07/13 14:18:33;;;;;;;;;;;28.40;99.90;;;;;;5009010;28;20006;-85
2022/07/13 14:20:59;;;;;;;;;;;28.60;99.90;;;;;;5000623;28;20043;-85
2022/07/13 14:23:25;;;;;;;;;;;29.00;99.90;;;;;;5005096;28;19986;-86
2022/07/13 14:25:51;;;;;;;;;;;29.20;99.90;;;;;;5003701;28;20733;-87
2022/07/13 14:28:17;;;;;;;;;;;29.40;99.90;;;;;;4992692;28;19968;-88
2022/07/13 14:30:43;;;;;;;;;;;28.60;99.90;;;;;;5012410;28;21011;-84
2022/07/13 14:33:10;;;;;;;;;;;28.30;99.90;;;;;;4993867;28;19971;-87
2022/07/13 14:35:36;;;;;;;;;;;27.90;99.90;;;;;;4978501;28;19937;-85